• Join FlightAware (Why Join?)
  • Login
  • US Flag GB Flag 
00:04 EDT


 

Airport Tracker/Info


-or-


 

Live Flight TrackerFlight Track Log ✈ DAL268 ✈ 12-Jul-2013 ✈ KSFO - KJFK

Flight Track Log - Related Links

Times and Time Zones

All times are in EDT time to prevent confusion due to time zone crossing. See the DAL268 flight status page for this flight to view local times or setup timezone preferences in your user account.

Time Position Orientation Groundspeed Altitude Reporting Facility
EDT Latitude Longitude Course Direction KTS MPH feet Rate Location/Type
14:32 37.6667 -122.3167 38° Northeast 215 247 2,100  Level Northern Cal TRACON
14:33 37.7167 -122.2667 38° Northeast 275 316 4,400 2,520 Climbing Northern Cal TRACON
14:34 37.6651 -122.3183 38° Northeast  Level FlightAware Approximate
14:34 37.8000 -122.2667 360° North 281 323 7,200  Level Northern Cal TRACON
14:35 37.7626 -122.2207 38° Northeast  Level FlightAware Approximate
14:35 37.8833 -122.2667 360° North 295 339 9,800  Level Northern Cal TRACON
14:36 37.8602 -122.1231 38° Northeast  Level FlightAware Approximate
14:36 37.9500 -122.2000 38° Northeast 307 353 12,100  Level Northern Cal TRACON
14:37 37.9579 -122.0255 38° Northeast  Level FlightAware Approximate
14:37 38.0125 -122.1100 49° Northeast 316 364 14,700  Level Oakland Center
14:38 38.0758 -122.0264 46° Northeast 327 376 16,800 1,680 Climbing Oakland Center
14:39 38.1464 -121.9344 46° Northeast 359 413 18,200 1,560 Climbing Oakland Center
14:40 38.2211 -121.8381 45° Northeast 383 441 20,000 1,680 Climbing Oakland Center
14:41 38.2983 -121.7403 45° Northeast 393 452 21,700 1,740 Climbing Oakland Center
14:42 38.3767 -121.6372 46° Northeast 405 466 23,700 1,680 Climbing Oakland Center
14:43 38.4617 -121.5264 46° Northeast 404 465 25,200 1,380 Climbing Oakland Center
14:44 38.5392 -121.3892 54° Northeast 423 487 26,600 1,260 Climbing Oakland Center
14:45 38.6111 -121.2606 54° Northeast 442 509 27,900 1,200 Climbing Oakland Center
14:46 38.6856 -121.1386 52° Northeast 445 512 29,200 1,260 Climbing Oakland Center
14:47 38.7592 -121.0061 55° Northeast 453 521 30,600 1,080 Climbing Oakland Center
14:48 38.8364 -120.8728 53° Northeast 461 531 31,500 840 Climbing Oakland Center
14:49 38.9147 -120.7361 54° Northeast 473 544 32,400 960 Climbing Oakland Center
14:50 39.0108 -120.5708 53° Northeast 479 551 33,500 840 Climbing Oakland Center
14:51 39.0914 -120.4292 54° Northeast 486 559 34,200 600 Climbing Oakland Center
14:52 39.1742 -120.2850 53° Northeast 495 570 34,800 780 Climbing Oakland Center
14:53 39.2567 -120.1403 54° Northeast 500 575 35,900 720 Climbing Oakland Center
14:54 39.3369 -120.0069 52° Northeast 503 579 36,300 480 Climbing Oakland Center
14:55 39.4353 -119.8300 54° Northeast 503 579 37,000 300 Climbing Oakland Center
14:56 39.5183 -119.6822 54° Northeast 505 581 37,000  Level Oakland Center
14:57 39.6022 -119.5322 54° Northeast 510 587 37,000  Level Oakland Center
14:58 39.6847 -119.3814 55° Northeast 510 587 37,000  Level Oakland Center
14:59 39.7703 -119.2292 54° Northeast 515 593 37,000  Level Oakland Center
15:01 39.8542 -119.0758 54° Northeast 516 594 37,000  Level Oakland Center
15:02 39.9383 -118.9225 54° Northeast 516 594 37,000  Level Oakland Center
15:03 40.0231 -118.7683 54° Northeast 518 596 37,000  Level Oakland Center
15:04 40.1053 -118.6117 56° Northeast 520 598 37,000  Level Oakland Center
15:05 40.1731 -118.4056 67° East 511 588 37,000  Level Oakland Center
15:06 40.2211 -118.2278 70° East 515 593 37,000  Level Oakland Center
15:07 40.2689 -118.0511 70° East 514 592 37,000  Level Oakland Center
15:08 40.3194 -117.8686 70° East 518 596 37,000  Level Oakland Center
15:09 40.3656 -117.6981 70° East 519 597 37,000  Level Oakland Center
15:10 40.4178 -117.4992 71° East 516 594 37,000  Level Oakland Center
15:11 40.4631 -117.3283 71° East 515 593 37,000  Level Oakland Center
15:12 40.5086 -117.1567 71° East 517 595 37,000  Level Oakland Center
15:13 40.5628 -116.9558 70° East 515 593 37,000  Level Oakland Center
15:14 40.6075 -116.7819 71° East 515 593 37,000  Level Oakland Center
15:15 40.6544 -116.6117 70° East 513 590 37,000  Level Oakland Center
15:16 40.7167 -116.3833 70° East 513 590 37,000  Level Salt Lake Center
15:17 40.7694 -116.1847 71° East 514 592 37,000  Level Salt Lake Center
15:18 40.8139 -116.0125 71° East 516 594 37,000  Level Salt Lake Center
15:19 40.8672 -115.8150 70° East 513 590 37,000  Level Salt Lake Center
15:20 40.9100 -115.6442 72° East 512 589 37,000  Level Salt Lake Center
15:21 40.9628 -115.4439 71° East 515 593 37,000  Level Salt Lake Center
15:22 41.0058 -115.2728 72° East 511 588 37,000  Level Salt Lake Center
15:23 41.0578 -115.0719 71° East 515 593 37,000  Level Salt Lake Center
15:24 41.1025 -114.9006 71° East 514 592 37,000  Level Salt Lake Center
15:26 41.1475 -114.7147 72° East 512 589 37,000  Level Salt Lake Center
15:27 41.1922 -114.5361 72° East 511 588 37,000  Level Salt Lake Center
15:28 41.2369 -114.3567 72° East 512 589 37,000  Level Salt Lake Center
15:29 41.2892 -114.1411 72° East 512 589 37,000  Level Salt Lake Center
15:30 41.3325 -113.9611 72° East 512 589 37,000  Level Salt Lake Center
15:31 41.3703 -113.7781 75° East 514 592 37,000  Level Salt Lake Center
15:32 41.3800 -113.5944 86° East 502 578 37,000  Level Salt Lake Center
15:33 41.3914 -113.4092 85° East 502 578 37,000  Level Salt Lake Center
15:34 41.4033 -113.2217 85° East 507 583 37,000  Level Salt Lake Center
15:35 41.4139 -113.0353 86° East 507 583 37,000  Level Salt Lake Center
15:36 41.4281 -112.8119 85° East 505 581 37,000  Level Salt Lake Center
15:37 41.4386 -112.6256 86° East 505 581 37,000  Level Salt Lake Center
15:38 41.4497 -112.4389 85° East 505 581 37,000  Level Salt Lake Center
15:39 41.4603 -112.2533 86° East 501 577 37,000  Level Salt Lake Center
15:40 41.4700 -112.0664 86° East 502 578 37,000  Level Salt Lake Center
15:41 41.4803 -111.8800 86° East 502 578 37,000  Level Salt Lake Center
15:42 41.4900 -111.6922 86° East 503 579 37,000  Level Salt Lake Center
15:43 41.5003 -111.4675 86° East 504 580 37,000  Level Salt Lake Center
15:44 41.5094 -111.2800 86° East 504 580 37,000  Level Salt Lake Center
15:45 41.5164 -111.0939 87° East 501 577 37,000  Level Salt Lake Center
15:46 41.5247 -110.9161 86° East 503 579 37,000  Level Salt Lake Center
15:47 41.5336 -110.7089 87° East 503 579 37,000  Level Salt Lake Center
15:48 41.5397 -110.5314 87° East 502 578 37,000  Level Salt Lake Center
15:49 41.5478 -110.3244 87° East 501 577 37,000  Level Salt Lake Center
15:50 41.5539 -110.1461 87° East 503 579 37,000  Level Salt Lake Center
15:51 41.5619 -109.9386 87° East 502 578 37,000  Level Salt Lake Center
15:52 41.5678 -109.7589 87° East 504 580 37,000  Level Salt Lake Center
15:53 41.5753 -109.5506 87° East 503 579 37,000  Level Salt Lake Center
15:54 41.5814 -109.3719 87° East 501 577 37,000 60 Level Salt Lake Center
15:56 41.5886 -109.1597 87° East 504 580 37,200 480 Climbing Salt Lake Center
15:57 41.5947 -108.9758 87° East 506 582 38,000 720 Climbing Salt Lake Center
15:58 41.6017 -108.7972 87° East 501 577 38,800 480 Climbing Salt Lake Center
15:58 41.6078 -108.6200 87° East 494 568 39,000 60 Climbing Denver Center
16:00 41.6144 -108.4472 87° East 488 562 39,000  Level Denver Center
16:01 41.6211 -108.2439 87° East 490 564 39,000  Level Denver Center
16:02 41.6492 -108.0694 78° East 508 585 39,000  Level Denver Center
16:03 41.7203 -107.8489 67° East 512 589 39,000  Level Salt Lake Center
16:04 41.7689 -107.7086 65° Northeast 515 593 39,000  Level Denver Center
16:05 41.8386 -107.5144 64° Northeast 518 596 39,000  Level Denver Center
16:06 41.8983 -107.3489 64° Northeast 516 594 39,000  Level Denver Center
16:07 41.9669 -107.1536 65° Northeast 519 597 39,000  Level Denver Center
16:08 42.0258 -106.9856 65° Northeast 519 597 39,000  Level Denver Center
16:09 42.0722 -106.7828 73° East 510 587 39,000  Level Denver Center
16:10 42.0919 -106.6047 81° East 503 579 39,000  Level Denver Center
16:11 42.1064 -106.4078 84° East 501 577 39,000  Level Denver Center
16:12 42.1261 -106.1989 83° East 503 579 39,000  Level Denver Center
16:13 42.1414 -106.0197 83° East 503 579 39,000  Level Denver Center
16:14 42.1556 -105.8411 84° East 502 578 39,000  Level Denver Center
16:15 42.1711 -105.6344 84° East 497 572 39,000  Level Denver Center
16:16 42.1839 -105.4606 84° East 491 565 39,000  Level Denver Center
16:17 42.1986 -105.2561 84° East 491 565 39,000  Level Denver Center
16:18 42.2550 -105.0928 65° Northeast 506 582 39,000  Level Denver Center
16:19 42.3236 -104.9078 63° Northeast 494 568 39,000  Level Denver Center
16:20 42.3592 -104.7364 74° East 500 575 39,000  Level Denver Center
16:21 42.3719 -104.5306 85° East 500 575 39,000  Level Denver Center
16:22 42.3822 -104.3242 86° East 500 575 39,000  Level Denver Center
16:23 42.3897 -104.1483 87° East 495 570 39,000  Level Denver Center
16:24 42.3969 -103.9428 87° East 492 566 39,000  Level Denver Center
16:25 42.4036 -103.7667 87° East 492 566 39,000  Level Denver Center
16:26 42.4114 -103.5608 87° East 492 566 39,000  Level Denver Center
16:27 42.4169 -103.3847 87° East 491 565 39,000  Level Denver Center
16:28 42.4222 -103.2081 88° East 492 566 39,000  Level Denver Center
16:30 42.4289 -103.0019 87° East 491 565 39,000  Level Denver Center
16:31 42.4339 -102.8261 88° East 491 565 39,000  Level Denver Center
16:32 42.4403 -102.6192 88° East 491 565 39,000  Level Denver Center
16:33 42.4439 -102.4442 88° East 488 562 39,000  Level Denver Center
16:34 42.4481 -102.2383 88° East 489 563 39,000  Level Denver Center
16:35 42.4525 -102.0622 88° East 490 564 39,000  Level Denver Center
16:36 42.4569 -101.8578 88° East 487 560 39,000  Level Denver Center
16:37 42.4592 -101.6900 89° East 485 558 39,000  Level Denver Center
16:38 42.4628 -101.4844 89° East 488 562 39,000  Level Denver Center
16:39 42.4650 -101.3086 89° East 487 560 39,000  Level Denver Center
16:40 42.4678 -101.1033 89° East 487 560 39,000  Level Denver Center
16:41 42.4686 -100.9319 90° East 478 550 39,000  Level Denver Center
16:43 42.4711 -100.6289 89° East 486 559 39,000  Level Minneapolis Center
16:44 42.4736 -100.3469 89° East 482 555 39,000  Level Denver Center
16:45 42.4742 -100.1733 90° East 482 555 39,000  Level Denver Center
16:46 42.4739 -100.0486 90° East 481 554 39,000  Level Minneapolis Center
16:47 42.4750 -99.8661 89° East 483 556 39,000  Level Minneapolis Center
16:48 42.4756 -99.6844 90° East 481 554 39,000  Level Minneapolis Center
16:49 42.4750 -99.4294 90° East 479 551 39,000  Level Denver Center
16:50 42.4753 -99.3197 90° East 485 558 39,000  Level Minneapolis Center
16:51 42.4744 -99.1386 90° East 482 555 39,000  Level Minneapolis Center
16:52 42.4733 -98.9211 90° East 481 554 39,000  Level Minneapolis Center
16:53 42.4772 -98.7411 88° East 478 550 39,000  Level Minneapolis Center
16:54 42.4867 -98.5617 86° East 477 549 39,000  Level Minneapolis Center
16:55 42.4961 -98.3475 87° East 476 548 39,000  Level Minneapolis Center
16:56 42.5044 -98.1697 86° East 473 544 39,000  Level Minneapolis Center
16:57 42.5114 -97.9903 87° East 475 547 39,000  Level Minneapolis Center
16:58 42.5200 -97.7758 87° East 475 547 39,000  Level Minneapolis Center
16:59 42.5267 -97.5967 87° East 476 548 39,000  Level Minneapolis Center
17:00 42.5339 -97.4200 87° East 472 543 39,000  Level Minneapolis Center
17:01 42.5400 -97.2417 87° East 472 543 39,000  Level Minneapolis Center
17:02 42.5467 -97.0539 87° East 470 541 39,000  Level Minneapolis Center
17:03 42.5525 -96.8792 87° East 469 540 39,000  Level Minneapolis Center
17:05 42.5581 -96.7047 87° East 467 537 39,000  Level Minneapolis Center
17:06 42.5622 -96.5633 88° East 468 539 39,000  Level Minneapolis Center
17:07 42.5700 -96.3211 87° East 464 534 39,000  Level Minneapolis Center
17:08 42.5744 -96.1456 88° East 469 540 39,000  Level Minneapolis Center
17:09 42.5794 -95.9711 88° East 467 537 39,000  Level Minneapolis Center
17:10 42.5833 -95.7956 88° East 468 539 39,000  Level Minneapolis Center
17:11 42.5864 -95.6203 89° East 468 539 39,000  Level Minneapolis Center
17:12 42.5908 -95.4086 88° East 470 541 39,000  Level Minneapolis Center
17:13 42.5950 -95.2333 88° East 469 540 39,000  Level Minneapolis Center
17:14 42.5978 -95.0589 89° East 467 537 39,000  Level Minneapolis Center
17:15 42.6011 -94.8831 88° East 467 537 39,000  Level Minneapolis Center
17:16 42.6033 -94.7078 89° East 468 539 39,000  Level Minneapolis Center
17:17 42.6064 -94.5161 89° East 467 537 39,000  Level Minneapolis Center
17:18 42.6075 -94.3419 89° East 467 537 39,000  Level Minneapolis Center
17:19 42.6089 -94.1667 89° East 469 540 39,000  Level Minneapolis Center
17:20 42.6103 -93.9931 89° East 467 537 39,000  Level Minneapolis Center
17:21 42.6122 -93.7833 89° East 467 537 39,000  Level Minneapolis Center
17:22 42.6128 -93.6097 90° East 466 536 39,000  Level Minneapolis Center
17:23 42.6133 -93.4361 90° East 464 534 39,000  Level Minneapolis Center
17:24 42.6139 -93.2625 90° East 465 535 39,000  Level Minneapolis Center
17:25 42.6144 -93.0569 90° East 460 529 39,000  Level Minneapolis Center
17:26 42.6136 -92.8844 90° East 461 531 39,000  Level Minneapolis Center
17:27 42.6142 -92.7131 90° East 461 531 39,000  Level Minneapolis Center
17:28 42.6128 -92.5767 91° East 458 527 39,000  Level Minneapolis Center
17:29 42.6108 -92.3378 91° East 457 526 39,000  Level Chicago Center
17:30 42.6086 -92.1683 91° East 457 526 39,000  Level Chicago Center
17:31 42.6081 -91.9992 90° East 455 524 39,000  Level Chicago Center
17:32 42.6056 -91.8303 91° East 456 525 39,000  Level Chicago Center
17:34 42.6028 -91.6297 91° East 456 525 39,000  Level Chicago Center
17:35 42.6011 -91.4628 91° East 456 525 39,000  Level Chicago Center
17:36 42.5994 -91.2967 91° East 450 518 39,000  Level Chicago Center
17:37 42.5964 -91.1283 91° East 453 521 39,000  Level Chicago Center
17:38 42.5928 -90.9264 91° East 453 521 39,000  Level Chicago Center
17:39 42.5878 -90.7578 92° East 454 522 39,000  Level Chicago Center
17:40 42.5856 -90.5889 91° East 452 520 39,000  Level Chicago Center
17:41 42.5811 -90.4192 92° East 454 522 39,000  Level Chicago Center
17:42 42.5781 -90.2497 91° East 455 524 39,000  Level Chicago Center
17:43 42.5731 -90.0461 92° East 456 525 39,000  Level Chicago Center
17:44 42.5675 -89.8619 92° East 453 521 39,000  Level Chicago Center
17:45 42.5625 -89.6908 92° East 454 522 39,000  Level Chicago Center
17:46 42.5556 -89.5197 93° East 454 522 39,000  Level Chicago Center
17:47 42.5519 -89.3506 92° East 451 519 39,000  Level Chicago Center
17:48 42.5450 -89.1817 93° East 451 519 39,000  Level Chicago Center
17:49 42.5383 -88.9864 93° East 447 514 39,000  Level Chicago Center
17:50 42.5331 -88.8181 92° East 448 516 39,000  Level Chicago Center
17:51 42.5264 -88.6500 93° East 449 517 39,000  Level Chicago Center
17:52 42.5200 -88.4825 93° East 447 514 39,000  Level Chicago Center
17:53 42.5133 -88.3153 93° East 444 511 39,000  Level Chicago Center
17:54 42.5056 -88.1228 93° East 440 506 39,000  Level Chicago Center
17:55 42.4992 -87.9567 93° East 442 509 39,000  Level Chicago Center
17:56 42.4994 -87.7917 90° East 439 505 39,000  Level Chicago Center
17:57 42.4994 -87.6078 90° East 439 505 39,000  Level Chicago Center
17:58 42.4986 -87.4456 90° East 434 499 39,000  Level Chicago Center
17:59 42.4981 -87.2817 90° East 437 503 39,000  Level Chicago Center
18:00 42.4964 -87.1181 91° East 437 503 39,000 -300 Level Chicago Center
18:02 42.4953 -86.9250 90° East 431 496 38,500 -780 Descending Chicago Center
18:03 42.4931 -86.7656 91° East 426 490 37,500 -780 Descending Chicago Center
18:04 42.4919 -86.6261 91° East 429 494 37,000 -300 Descending Chicago Center
18:05 42.4886 -86.4336 91° East 429 494 37,000  Level Chicago Center
18:06 42.4867 -86.2744 91° East 427 491 37,000  Level Chicago Center
18:07 42.4836 -86.1153 91° East 428 493 37,000  Level Chicago Center
18:08 42.4814 -85.9558 91° East 428 493 37,000  Level Chicago Center
18:09 42.4783 -85.7942 91° East 433 498 37,000  Level Chicago Center
18:10 42.4747 -85.6025 91° East 430 495 37,000  Level Chicago Center
18:11 42.4725 -85.4400 91° East 434 499 37,000  Level Chicago Center
18:12 42.4686 -85.2797 92° East 430 495 37,000  Level Chicago Center
18:13 42.4647 -85.1194 92° East 428 493 37,000  Level Chicago Center
18:14 42.4608 -84.9603 92° East 426 490 37,000  Level Chicago Center
18:15 42.4567 -84.7678 92° East 428 493 37,000  Level Chicago Center
18:16 42.4517 -84.6094 92° East 425 489 37,000  Level Chicago Center
18:17 42.4461 -84.4522 93° East 422 486 37,000  Level Chicago Center
18:18 42.4417 -84.2947 92° East 420 483 37,000  Level Chicago Center
18:19 42.4342 -84.1478 94° East 418 481 37,000  Level Cleveland Center
18:20 42.4303 -83.9958 92° East 418 481 37,000  Level Cleveland Center
18:21 42.4244 -83.8378 93° East 418 481 37,000  Level Cleveland Center
18:22 42.4206 -83.6856 92° East 418 481 37,000  Level Cleveland Center
18:23 42.4117 -83.5475 95° East 413 475 37,000  Level Cleveland Center
18:24 42.4050 -83.3897 93° East 419 482 37,000  Level Cleveland Center
18:25 42.4011 -83.2094 92° East 426 490 37,000  Level Cleveland Center
18:26 42.3939 -83.0544 94° East 426 490 37,000  Level Cleveland Center
18:27 42.3850 -82.8911 94° East 426 490 37,000  Level Cleveland Center
18:28 42.3797 -82.7278 92° East 426 490 37,000  Level Cleveland Center
18:29 42.3722 -82.5589 93° East 436 502 37,000  Level Cleveland Center
18:30 42.3647 -82.3872 93° East 446 513 37,000  Level Cleveland Center
18:31 42.3569 -82.2156 93° East 446 513 37,000  Level Cleveland Center
18:32 42.3508 -82.0553 93° East 446 513 37,000  Level Cleveland Center
18:33 42.3467 -81.8811 92° East 455 524 37,000  Level Cleveland Center
18:34 42.3358 -81.7039 95° East 455 524 37,000  Level Cleveland Center
18:35 42.3311 -81.5550 92° East 461 531 37,000  Level Cleveland Center
18:36 42.3219 -81.3864 94° East 456 525 37,000  Level Cleveland Center
18:37 42.3125 -81.2122 94° East 456 525 37,000  Level Cleveland Center
18:38 42.3050 -81.0408 93° East 461 531 37,000  Level Cleveland Center
18:39 42.2953 -80.8722 94° East 461 531 37,000  Level Cleveland Center
18:40 42.2850 -80.6869 94° East 461 531 37,000  Level Cleveland Center
18:41 42.2767 -80.5131 94° East 461 531 37,000  Level Cleveland Center
18:42 42.2683 -80.3475 94° East 456 525 37,000  Level Cleveland Center
18:43 42.2572 -80.1764 95° East 456 525 37,000  Level Cleveland Center
18:44 42.2461 -80.0053 95° East 462 532 37,000  Level Cleveland Center
18:45 42.2392 -79.8539 93° East 462 532 37,000  Level Cleveland Center
18:46 42.2275 -79.6803 95° East 462 532 37,000  Level Cleveland Center
18:47 42.2156 -79.5122 95° East 462 532 37,000  Level Cleveland Center
18:48 42.2033 -79.3414 95° East 462 532 37,000 60 Level Cleveland Center
18:49 42.1931 -79.1678 95° East 462 532 37,200 480 Climbing Cleveland Center
18:50 42.1617 -79.0006 104° East 462 532 38,000 360 Climbing Cleveland Center
18:51 42.1219 -78.8447 109° East 449 517 38,000  Level Cleveland Center
18:52 42.0797 -78.6836 109° East 449 517 38,000  Level Cleveland Center
18:53 42.0375 -78.5228 109° East 449 517 38,000  Level Cleveland Center
18:54 41.9969 -78.3592 108° East 449 517 38,000  Level Cleveland Center
18:55 41.9542 -78.1986 110° East 454 522 38,000  Level Cleveland Center
18:56 41.9108 -78.0356 110° East 459 528 38,000  Level Cleveland Center
18:57 41.8572 -77.8306 109° East 455 524 38,000  Level New York Center
18:58 41.8147 -77.6672 109° East 460 529 38,000  Level New York Center
18:59 41.7722 -77.5044 109° East 460 529 38,000  Level New York Center
19:00 41.7219 -77.3214 110° East 466 536 38,000  Level New York Center
19:01 41.6808 -77.1589 109° East 466 536 38,000  Level New York Center
19:02 41.6353 -76.9964 111° Southeast 466 536 38,000 -60 Level New York Center
19:03 41.5936 -76.8344 109° East 461 531 37,900 -660 Descending New York Center
19:04 41.5550 -76.6922 110° East 461 531 36,700 -1,200 Descending New York Center
19:05 41.5089 -76.5303 111° Southeast 461 531 35,500 -1,260 Descending New York Center
19:06 41.4628 -76.3603 110° East 461 531 34,200 -780 Descending New York Center
19:07 41.4142 -76.1931 111° Southeast 467 537 34,000 -120 Descending New York Center
19:08 41.3714 -76.0347 110° East 494 568 34,000 -540 Level New York Center
19:09 41.3244 -75.8708 111° Southeast 488 562 33,000 -2,520 Descending New York Center
19:10 41.2642 -75.6675 111° Southeast 483 556 29,000 -3,480 Descending New York Center
19:11 41.2219 -75.5319 112° Southeast 488 562 26,000 -3,000 Descending New York Center
19:12 41.1525 -75.3397 116° Southeast 483 556 23,100 -1,560 Descending New York Center
19:13 41.1019 -75.1850 113° Southeast 472 543 23,000 -60 Descending New York Center
19:14 41.0472 -75.0300 115° Southeast 467 537 23,000 -120 Level New York Center
19:15 40.9989 -74.8675 111° Southeast 467 537 22,800 -600 Descending New York Center
19:16 40.9756 -74.6958 100° East 472 543 21,800 -1,080 Descending New York Center
19:17 40.9583 -74.5217 97° East 472 543 20,700 -1,080 Descending New York Center
19:18 40.9403 -74.3667 99° East 462 532 19,700 -1,020 Descending New York Center
19:19 40.9333 -74.2667 95° East 409 471 19,000 -480 Descending New York TRACON
19:20 40.9167 -74.1500 101° East 349 402 19,000 -180 Level New York TRACON
19:21 40.8833 -74.0167 108° East 323 372 18,700 -780 Descending New York TRACON
19:22 40.8500 -73.9167 114° Southeast 312 359 17,400 -1,320 Descending New York TRACON
19:23 40.8000 -73.8167 123° Southeast 299 344 16,100 -1,500 Descending New York TRACON
19:24 40.7500 -73.7500 135° Southeast 300 345 14,500 -1,500 Descending New York TRACON
19:25 40.7000 -73.6833 135° Southeast 285 328 13,300 -780 Descending New York TRACON
19:26 40.6333 -73.6167 143° Southeast 260 299 13,000 -780 Descending New York TRACON
19:27 40.5833 -73.5500 135° Southeast 245 282 11,700 -1,380 Descending New York TRACON
19:28 40.5333 -73.5167 153° Southeast 250 288 10,300 -1,740 Descending New York TRACON
19:29 40.4667 -73.5500 201° Southwest 244 281 8,300 -2,100 Descending New York TRACON
19:30 40.4167 -73.6000 217° Southwest 245 282 6,100 -2,100 Descending New York TRACON
19:31 40.3500 -73.6333 201° Southwest 247 284 4,200 -1,500 Descending New York TRACON
19:32 40.3000 -73.6833 217° Southwest 242 278 3,100 -600 Descending New York TRACON
19:33 40.2833 -73.7667 255° West 221 254 3,000 -120 Descending New York TRACON
19:34 40.2667 -73.8333 252° West 199 229 2,900 -60 Descending New York TRACON
19:35 40.3000 -73.9000 303° West 199 229 2,900 -60 Level New York TRACON
19:36 40.3333 -73.9167 339° North 179 206 2,800 -360 Descending New York TRACON
19:37 40.3833 -73.9167 360° North 170 196 2,200 -420 Descending New York TRACON
19:38 40.4333 -73.9167 360° North 161 185 2,000 -120 Descending New York TRACON
19:39 40.4667 -73.8833 37° Northeast 140 161 2,000 -60 Level New York TRACON
19:40 40.5000 -73.8667 21° North 140 161 1,900 -120 Descending New York TRACON